createdAt,value
2022-12-25T00:00:31.091Z,7.90
2022-12-25T00:02:59.664Z,7.90
2022-12-25T00:05:28.290Z,7.80
2022-12-25T00:07:56.630Z,7.80
2022-12-25T00:10:25.189Z,7.80
2022-12-25T00:12:54.907Z,7.80
2022-12-25T00:15:23.172Z,7.80
2022-12-25T00:17:51.528Z,7.80
2022-12-25T00:20:19.953Z,7.80
2022-12-25T00:22:48.236Z,7.80
2022-12-25T00:25:16.585Z,7.80
2022-12-25T00:27:44.848Z,7.70
2022-12-25T00:30:15.104Z,7.70
2022-12-25T00:32:43.348Z,7.70
2022-12-25T00:35:11.753Z,7.70
2022-12-25T00:37:40.079Z,7.70
2022-12-25T00:40:09.692Z,7.70
2022-12-25T00:42:37.980Z,7.70
2022-12-25T00:45:07.008Z,7.70
2022-12-25T00:47:36.727Z,7.70
2022-12-25T00:50:05.625Z,7.70
2022-12-25T00:52:34.366Z,7.80
2022-12-25T00:55:02.651Z,7.80
2022-12-25T00:57:30.946Z,7.70
2022-12-25T00:59:59.278Z,7.70
2022-12-25T01:02:27.771Z,7.70
2022-12-25T01:04:58.615Z,7.70
2022-12-25T01:07:27.850Z,7.60
2022-12-25T01:10:13.405Z,7.60
2022-12-25T01:12:44.102Z,7.60
2022-12-25T01:15:13.401Z,7.60
2022-12-25T01:17:41.869Z,7.60
2022-12-25T01:20:15.047Z,7.60
2022-12-25T01:22:43.415Z,7.60
2022-12-25T01:25:12.979Z,7.60
2022-12-25T01:27:42.684Z,7.60
2022-12-25T01:30:12.251Z,7.60
2022-12-25T01:32:40.549Z,7.60
2022-12-25T01:35:09.491Z,7.60
2022-12-25T01:37:39.230Z,7.60
2022-12-25T01:40:09.016Z,7.60
2022-12-25T01:42:37.409Z,7.60
2022-12-25T01:45:37.039Z,7.60
2022-12-25T01:48:10.356Z,7.60
2022-12-25T01:50:43.036Z,7.60
2022-12-25T01:53:13.260Z,7.60
2022-12-25T01:55:43.585Z,7.50
2022-12-25T01:58:11.955Z,7.50
2022-12-25T02:00:40.400Z,7.50
2022-12-25T02:03:08.936Z,7.50
2022-12-25T02:05:37.279Z,7.50
2022-12-25T02:08:10.904Z,7.50
2022-12-25T02:10:40.600Z,7.40
2022-12-25T02:13:09.363Z,7.40
2022-12-25T02:15:49.446Z,7.30
2022-12-25T02:18:24.834Z,7.30
2022-12-25T02:21:05.836Z,7.30
2022-12-25T02:24:05.870Z,7.30
2022-12-25T02:27:03.543Z,7.30
2022-12-25T02:29:43.676Z,7.30
2022-12-25T02:32:20.200Z,7.30
2022-12-25T02:34:53.160Z,7.30
2022-12-25T02:37:28.876Z,7.30
2022-12-25T02:40:01.989Z,7.30
2022-12-25T02:43:09.661Z,7.30
2022-12-25T02:46:02.448Z,7.30
2022-12-25T02:48:57.646Z,7.30
2022-12-25T02:51:46.688Z,7.40
2022-12-25T02:54:37.132Z,7.30
2022-12-25T02:57:26.817Z,7.30
2022-12-25T03:00:15.754Z,7.30
2022-12-25T03:03:04.190Z,7.30
2022-12-25T03:05:52.745Z,7.30
2022-12-25T03:08:23.953Z,7.30
2022-12-25T03:11:16.053Z,7.30
2022-12-25T03:13:46.293Z,7.20
2022-12-25T03:16:32.104Z,7.20
2022-12-25T03:19:22.015Z,7.20
2022-12-25T03:22:07.473Z,7.20
2022-12-25T03:24:49.620Z,7.30
2022-12-25T03:27:18.197Z,7.20
2022-12-25T03:30:08.988Z,7.20
2022-12-25T03:32:43.492Z,7.20
2022-12-25T03:35:24.362Z,7.10
2022-12-25T03:38:21.928Z,7.10
2022-12-25T03:41:19.746Z,7.10
2022-12-25T03:44:14.442Z,7.10
2022-12-25T03:47:05.986Z,7.10
2022-12-25T03:49:59.916Z,7.10
2022-12-25T03:52:48.431Z,7.10
2022-12-25T03:55:38.425Z,7.20
2022-12-25T03:58:24.067Z,7.20
2022-12-25T04:01:09.543Z,7.20
2022-12-25T04:03:55.247Z,7.20
2022-12-25T04:06:37.372Z,7.20
2022-12-25T04:09:24.657Z,7.30
2022-12-25T04:12:10.221Z,7.20
2022-12-25T04:15:04.244Z,7.20
2022-12-25T04:17:50.286Z,7.20
2022-12-25T04:20:35.802Z,7.30
2022-12-25T04:23:21.469Z,7.30
2022-12-25T04:26:08.936Z,7.30
2022-12-25T04:28:54.936Z,7.30
2022-12-25T04:31:40.647Z,7.30
2022-12-25T04:34:26.334Z,7.40
2022-12-25T04:36:54.577Z,7.40
2022-12-25T04:39:22.945Z,7.40
2022-12-25T04:41:52.613Z,7.40
2022-12-25T04:44:20.888Z,7.40
2022-12-25T04:46:49.327Z,7.40
2022-12-25T04:49:17.716Z,7.30
2022-12-25T04:51:46.097Z,7.30
2022-12-25T04:54:14.355Z,7.30
2022-12-25T04:56:45.850Z,7.30
2022-12-25T04:59:15.827Z,7.30
2022-12-25T05:01:44.280Z,7.30
2022-12-25T05:04:12.723Z,7.30
2022-12-25T05:06:41.428Z,7.30
2022-12-25T05:09:10.705Z,7.30
2022-12-25T05:11:39.040Z,7.20
2022-12-25T05:14:07.350Z,7.20
2022-12-25T05:16:37.124Z,7.20
2022-12-25T05:19:05.388Z,7.20
2022-12-25T05:21:33.995Z,7.10
2022-12-25T05:24:02.398Z,7.10
2022-12-25T05:26:30.679Z,7.10
2022-12-25T05:29:00.381Z,7.10
2022-12-25T05:31:28.806Z,7.10
2022-12-25T05:33:58.541Z,7.10
2022-12-25T05:36:26.853Z,7.10
2022-12-25T05:38:55.170Z,7.10
2022-12-25T05:41:23.416Z,7.10
2022-12-25T05:43:51.707Z,7.10
2022-12-25T05:46:20.056Z,7.20
2022-12-25T05:48:51.473Z,7.20
2022-12-25T05:51:21.189Z,7.20
2022-12-25T05:53:49.830Z,7.20
2022-12-25T05:56:18.341Z,7.30
2022-12-25T05:58:46.677Z,7.30
2022-12-25T06:01:18.420Z,7.30
2022-12-25T06:03:47.143Z,7.30
2022-12-25T06:06:15.975Z,7.30
2022-12-25T06:08:45.717Z,7.30
2022-12-25T06:11:15.154Z,7.30
2022-12-25T06:13:43.682Z,7.30
2022-12-25T06:16:13.345Z,7.30
2022-12-25T06:18:43.490Z,7.30
2022-12-25T06:21:13.698Z,7.40
2022-12-25T06:23:46.738Z,7.40
2022-12-25T06:26:17.668Z,7.50
2022-12-25T06:28:46.302Z,7.50
2022-12-25T06:31:16.466Z,7.60
2022-12-25T06:33:45.235Z,7.60
2022-12-25T06:36:18.872Z,7.60
2022-12-25T06:38:48.939Z,7.70
2022-12-25T06:41:19.784Z,7.70
2022-12-25T06:43:50.316Z,7.70
2022-12-25T06:46:19.548Z,7.60
2022-12-25T06:48:49.614Z,7.70
2022-12-25T06:51:19.033Z,7.70
2022-12-25T06:53:49.150Z,7.80
2022-12-25T06:56:19.444Z,7.80
2022-12-25T06:58:49.422Z,7.90
2022-12-25T07:01:22.429Z,7.90
2022-12-25T07:03:53.531Z,7.90
2022-12-25T07:06:21.888Z,8.00
2022-12-25T07:08:51.787Z,8.10
2022-12-25T07:11:20.324Z,8.20
2022-12-25T07:13:49.160Z,8.30
2022-12-25T07:16:20.671Z,8.40
2022-12-25T07:18:49.070Z,8.50
2022-12-25T07:21:19.425Z,8.60
2022-12-25T07:23:49.764Z,8.80
2022-12-25T07:26:22.621Z,8.80
2022-12-25T07:28:50.842Z,8.90
2022-12-25T07:31:19.602Z,9.00
2022-12-25T07:33:47.873Z,9.00
2022-12-25T07:36:16.551Z,9.20
2022-12-25T07:38:45.337Z,9.20
2022-12-25T07:41:14.022Z,9.40
2022-12-25T07:43:44.323Z,9.40
2022-12-25T07:46:12.875Z,9.50
2022-12-25T07:49:00.004Z,9.60
2022-12-25T07:51:30.172Z,9.80
2022-12-25T07:53:58.544Z,9.80
2022-12-25T07:56:26.783Z,9.90
2022-12-25T07:58:57.973Z,9.90
2022-12-25T08:01:28.154Z,10.00
2022-12-25T08:03:58.561Z,10.10
2022-12-25T08:06:30.577Z,10.20
2022-12-25T08:08:59.189Z,10.30
2022-12-25T08:11:28.586Z,10.40
2022-12-25T08:13:58.253Z,10.50
2022-12-25T08:16:30.174Z,10.60
2022-12-25T08:18:58.488Z,10.80
2022-12-25T08:21:26.820Z,10.90
2022-12-25T08:23:55.169Z,11.00
2022-12-25T08:26:24.231Z,11.10
2022-12-25T08:28:56.342Z,11.10
2022-12-25T08:31:27.822Z,11.20
2022-12-25T08:33:58.564Z,11.30
2022-12-25T08:36:27.226Z,11.30
2022-12-25T08:39:02.747Z,11.40
2022-12-25T08:41:31.954Z,11.40
2022-12-25T08:44:00.266Z,11.50
2022-12-25T08:46:30.086Z,11.60
2022-12-25T08:48:58.599Z,11.60
2022-12-25T08:51:27.557Z,11.70
2022-12-25T08:54:00.832Z,11.80
2022-12-25T08:56:29.359Z,11.80
2022-12-25T08:59:21.653Z,11.90
2022-12-25T09:01:51.448Z,12.00
2022-12-25T09:04:20.585Z,12.10
2022-12-25T09:06:50.331Z,12.10
2022-12-25T09:09:18.645Z,12.20
2022-12-25T09:11:47.062Z,12.30
2022-12-25T09:14:15.397Z,12.30
2022-12-25T09:16:43.604Z,12.40
2022-12-25T09:19:13.299Z,12.50
2022-12-25T09:21:41.525Z,12.60
2022-12-25T09:24:10.136Z,12.60
2022-12-25T09:26:39.182Z,12.70
2022-12-25T09:29:07.446Z,12.80
2022-12-25T09:31:38.337Z,12.90
2022-12-25T09:34:06.633Z,13.00
2022-12-25T09:36:36.309Z,13.10
2022-12-25T09:39:04.814Z,13.20
2022-12-25T09:41:36.601Z,13.30
2022-12-25T09:44:08.123Z,13.40
2022-12-25T09:46:44.065Z,13.40
2022-12-25T09:49:23.032Z,13.50
2022-12-25T09:51:58.285Z,13.50
2022-12-25T09:54:37.842Z,13.60
2022-12-25T09:57:06.671Z,13.70
2022-12-25T09:59:35.260Z,13.80
2022-12-25T10:02:26.955Z,13.80
2022-12-25T10:05:25.603Z,14.00
2022-12-25T10:08:02.624Z,14.00
2022-12-25T10:10:47.898Z,14.10
2022-12-25T10:13:39.288Z,14.20
2022-12-25T10:16:18.118Z,14.30
2022-12-25T10:19:06.008Z,14.30
2022-12-25T10:21:37.086Z,14.50
2022-12-25T10:24:17.791Z,14.50
2022-12-25T10:26:47.027Z,14.50
2022-12-25T10:29:18.416Z,14.60
2022-12-25T10:31:50.465Z,14.70
2022-12-25T10:34:19.087Z,14.80
2022-12-25T10:36:48.330Z,14.90
2022-12-25T10:39:20.793Z,14.90
2022-12-25T10:42:18.894Z,15.10
2022-12-25T10:45:17.156Z,15.10
2022-12-25T10:48:48.802Z,15.20
2022-12-25T10:51:34.223Z,15.30
2022-12-25T10:54:03.612Z,15.40
2022-12-25T10:56:33.293Z,15.50
2022-12-25T10:59:08.686Z,15.50
2022-12-25T11:01:37.205Z,15.60
2022-12-25T11:04:05.690Z,15.60
2022-12-25T11:06:34.620Z,15.70
2022-12-25T11:09:04.161Z,15.70
2022-12-25T11:11:42.939Z,15.80
2022-12-25T11:14:20.444Z,15.80
2022-12-25T11:16:48.726Z,15.90
2022-12-25T11:19:27.538Z,15.90
2022-12-25T11:21:57.676Z,15.90
2022-12-25T11:24:29.059Z,16.00
2022-12-25T11:27:01.133Z,16.00
2022-12-25T11:29:38.848Z,16.10
2022-12-25T11:32:12.860Z,16.10
2022-12-25T11:34:46.369Z,16.10
2022-12-25T11:37:22.340Z,16.20
2022-12-25T11:39:50.915Z,16.20
2022-12-25T11:42:26.407Z,16.20
2022-12-25T11:45:09.164Z,16.30
2022-12-25T11:47:45.051Z,16.30
2022-12-25T11:50:24.596Z,16.40
2022-12-25T11:52:54.366Z,16.40
2022-12-25T11:55:30.697Z,16.40
2022-12-25T11:58:05.708Z,16.50
2022-12-25T12:00:36.535Z,16.60
2022-12-25T12:03:12.646Z,16.60
2022-12-25T12:05:51.699Z,16.70
2022-12-25T12:08:20.053Z,16.70
2022-12-25T12:11:16.223Z,16.70
2022-12-25T12:14:03.431Z,16.80
2022-12-25T12:16:32.233Z,16.70
2022-12-25T12:19:11.471Z,16.80
2022-12-25T12:21:44.221Z,16.70
2022-12-25T12:24:18.238Z,16.70
2022-12-25T12:26:48.607Z,16.80
2022-12-25T12:29:27.308Z,16.80
2022-12-25T12:31:59.387Z,16.80
2022-12-25T12:34:30.790Z,16.80
2022-12-25T12:37:05.050Z,16.90
2022-12-25T12:39:37.788Z,16.90
2022-12-25T12:42:16.823Z,16.90
2022-12-25T12:44:47.549Z,16.90
2022-12-25T12:47:31.316Z,16.90
2022-12-25T12:50:00.926Z,16.90
2022-12-25T12:52:35.311Z,16.90
2022-12-25T12:55:06.389Z,16.90
2022-12-25T12:57:39.813Z,16.90
2022-12-25T13:00:19.601Z,16.90
2022-12-25T13:03:06.976Z,17.00
2022-12-25T13:05:41.400Z,17.10
2022-12-25T13:08:23.470Z,17.20
2022-12-25T13:11:08.688Z,17.50
2022-12-25T13:13:41.854Z,17.60
2022-12-25T13:16:20.133Z,17.70
2022-12-25T13:18:49.119Z,17.80
2022-12-25T13:21:22.050Z,17.90
2022-12-25T13:23:56.663Z,17.90
2022-12-25T13:26:25.209Z,18.10
2022-12-25T13:28:56.032Z,18.50
2022-12-25T13:31:27.582Z,19.80
2022-12-25T13:33:59.720Z,21.10
2022-12-25T13:36:29.861Z,23.20
2022-12-25T13:39:00.110Z,24.50
2022-12-25T13:41:53.228Z,24.90
2022-12-25T13:44:24.281Z,26.90
2022-12-25T13:46:54.082Z,27.10
2022-12-25T13:49:23.980Z,27.90
2022-12-25T13:51:52.879Z,27.60
2022-12-25T13:54:21.230Z,27.70
2022-12-25T13:56:52.090Z,28.00
2022-12-25T13:59:22.169Z,27.80
2022-12-25T14:01:52.038Z,27.40
2022-12-25T14:04:23.723Z,27.70
2022-12-25T14:06:53.699Z,27.50
2022-12-25T14:09:22.766Z,26.80
2022-12-25T14:11:53.456Z,25.70
2022-12-25T14:14:23.925Z,24.80
2022-12-25T14:16:54.565Z,24.00
2022-12-25T14:19:29.658Z,23.30
2022-12-25T14:22:02.307Z,22.60
2022-12-25T14:24:33.353Z,22.10
2022-12-25T14:27:03.746Z,21.60
2022-12-25T14:29:38.040Z,21.10
2022-12-25T14:32:08.789Z,20.70
2022-12-25T14:34:38.601Z,20.30
2022-12-25T14:37:08.796Z,20.00
2022-12-25T14:39:39.032Z,19.60
2022-12-25T14:42:18.945Z,19.30
2022-12-25T14:44:58.699Z,19.00
2022-12-25T14:47:27.832Z,18.70
2022-12-25T14:49:58.244Z,18.40
2022-12-25T14:52:30.722Z,18.10
2022-12-25T14:55:01.950Z,17.90
2022-12-25T14:57:34.517Z,17.60
2022-12-25T15:00:09.205Z,17.40
2022-12-25T15:02:44.616Z,17.20
2022-12-25T15:05:32.766Z,17.00
2022-12-25T15:08:07.755Z,16.80
2022-12-25T15:11:06.339Z,16.60
2022-12-25T15:13:25.110Z,16.50
2022-12-25T15:15:58.844Z,16.40
2022-12-25T15:18:32.636Z,16.20
2022-12-25T15:21:03.327Z,16.10
2022-12-25T15:23:31.561Z,15.90
2022-12-25T15:25:59.860Z,15.90
2022-12-25T15:28:28.148Z,15.80
2022-12-25T15:30:56.594Z,15.70
2022-12-25T15:33:24.928Z,15.50
2022-12-25T15:35:53.234Z,15.40
2022-12-25T15:38:25.533Z,15.40
2022-12-25T15:40:53.871Z,15.30
2022-12-25T15:43:39.877Z,15.20
2022-12-25T15:46:10.574Z,15.10
2022-12-25T15:48:38.985Z,15.10
2022-12-25T15:51:07.391Z,15.00
2022-12-25T15:53:37.039Z,15.00
2022-12-25T15:56:05.584Z,14.90
2022-12-25T15:58:33.857Z,14.90
2022-12-25T16:01:02.196Z,14.80
2022-12-25T16:03:30.590Z,14.80
2022-12-25T16:05:58.973Z,14.80
2022-12-25T16:08:27.230Z,14.70
2022-12-25T16:10:56.898Z,14.70
2022-12-25T16:13:25.172Z,14.60
2022-12-25T16:15:53.433Z,14.60
2022-12-25T16:18:23.950Z,14.60
2022-12-25T16:20:52.804Z,14.50
2022-12-25T16:23:21.647Z,14.40
2022-12-25T16:25:49.925Z,14.30
2022-12-25T16:28:19.585Z,14.30
2022-12-25T16:30:47.897Z,14.20
2022-12-25T16:33:16.514Z,14.10
2022-12-25T16:35:45.341Z,14.00
2022-12-25T16:38:13.712Z,13.90
2022-12-25T16:40:42.032Z,13.80
2022-12-25T16:43:10.327Z,13.70
2022-12-25T16:45:41.130Z,13.60
2022-12-25T16:48:14.449Z,13.60
2022-12-25T16:50:43.075Z,13.50
2022-12-25T16:53:12.452Z,13.40
2022-12-25T16:55:41.045Z,13.40
2022-12-25T16:58:09.285Z,13.30
2022-12-25T17:00:37.912Z,13.30
2022-12-25T17:03:07.803Z,13.20
2022-12-25T17:05:36.161Z,13.20
2022-12-25T17:08:04.532Z,13.10
2022-12-25T17:10:33.300Z,13.10
2022-12-25T17:13:01.627Z,13.00
2022-12-25T17:15:29.893Z,13.00
2022-12-25T17:17:58.138Z,12.90
2022-12-25T17:20:27.779Z,12.90
2022-12-25T17:22:56.115Z,12.90
2022-12-25T17:25:24.382Z,12.90
2022-12-25T17:27:52.619Z,12.80
2022-12-25T17:30:21.044Z,12.80
2022-12-25T17:32:49.781Z,12.70
2022-12-25T17:35:20.705Z,12.70
2022-12-25T17:37:50.360Z,12.60
2022-12-25T17:40:18.797Z,12.60
2022-12-25T17:42:47.096Z,12.50
2022-12-25T17:45:15.393Z,12.40
2022-12-25T17:47:43.692Z,12.40
2022-12-25T17:50:12.060Z,12.30
2022-12-25T17:52:40.360Z,12.30
2022-12-25T17:55:10.962Z,12.20
2022-12-25T17:57:41.209Z,12.10
2022-12-25T18:00:10.770Z,12.10
2022-12-25T18:02:40.180Z,12.00
2022-12-25T18:05:09.725Z,11.90
2022-12-25T18:07:38.018Z,11.90
2022-12-25T18:10:07.037Z,11.80
2022-12-25T18:12:36.771Z,11.70
2022-12-25T18:15:05.579Z,11.70
2022-12-25T18:17:33.819Z,11.60
2022-12-25T18:20:02.659Z,11.60
2022-12-25T18:22:31.010Z,11.50
2022-12-25T18:24:59.444Z,11.50
2022-12-25T18:27:28.154Z,11.40
2022-12-25T18:29:57.829Z,11.30
2022-12-25T18:32:28.199Z,11.30
2022-12-25T18:34:57.038Z,11.20
2022-12-25T18:37:26.616Z,11.20
2022-12-25T18:39:54.890Z,11.10
2022-12-25T18:42:43.141Z,11.10
2022-12-25T18:45:15.097Z,11.00
2022-12-25T18:47:49.795Z,11.00
2022-12-25T18:50:18.081Z,10.90
2022-12-25T18:52:55.159Z,10.80
2022-12-25T18:55:23.400Z,10.80
2022-12-25T18:57:51.668Z,10.70
2022-12-25T19:00:24.835Z,10.60
2022-12-25T19:02:58.246Z,10.60
2022-12-25T19:05:31.648Z,10.60
2022-12-25T19:07:59.916Z,10.50
2022-12-25T19:10:32.617Z,10.50
2022-12-25T19:13:03.943Z,10.40
2022-12-25T19:15:33.614Z,10.40
2022-12-25T19:18:03.962Z,10.40
2022-12-25T19:20:39.057Z,10.30
2022-12-25T19:23:11.995Z,10.30
2022-12-25T19:25:45.623Z,10.30
2022-12-25T19:28:14.092Z,10.20
2022-12-25T19:30:43.660Z,10.20
2022-12-25T19:33:17.476Z,10.10
2022-12-25T19:35:46.876Z,10.10
2022-12-25T19:38:15.131Z,10.10
2022-12-25T19:41:00.422Z,10.00
2022-12-25T19:43:30.188Z,10.00
2022-12-25T19:46:00.333Z,10.00
2022-12-25T19:48:28.934Z,9.90
2022-12-25T19:50:57.258Z,9.90
2022-12-25T19:53:26.051Z,9.80
2022-12-25T19:55:55.571Z,9.80
2022-12-25T19:58:24.899Z,9.70
2022-12-25T20:01:02.770Z,9.70
2022-12-25T20:03:31.206Z,9.70
2022-12-25T20:06:18.905Z,9.60
2022-12-25T20:08:53.567Z,9.60
2022-12-25T20:11:23.159Z,9.60
2022-12-25T20:13:51.715Z,9.60
2022-12-25T20:16:21.777Z,9.50
2022-12-25T20:18:50.243Z,9.50
2022-12-25T20:21:20.379Z,9.40
2022-12-25T20:23:52.717Z,9.40
2022-12-25T20:26:23.384Z,9.40
2022-12-25T20:28:52.266Z,9.30
2022-12-25T20:31:23.824Z,9.30
2022-12-25T20:33:52.153Z,9.30
2022-12-25T20:36:20.908Z,9.20
2022-12-25T20:38:49.227Z,9.20
2022-12-25T20:41:28.513Z,9.20
2022-12-25T20:43:58.155Z,9.10
2022-12-25T20:46:28.102Z,9.10
2022-12-25T20:48:56.499Z,9.10
2022-12-25T20:51:26.940Z,9.10
2022-12-25T20:53:55.979Z,9.10
2022-12-25T20:56:25.787Z,9.00
2022-12-25T20:58:55.460Z,8.90
2022-12-25T21:01:24.142Z,8.90
2022-12-25T21:03:54.642Z,8.90
2022-12-25T21:06:23.771Z,8.90
2022-12-25T21:08:53.679Z,8.90
2022-12-25T21:11:22.438Z,8.90
2022-12-25T21:13:51.275Z,8.80
2022-12-25T21:16:22.302Z,8.80
2022-12-25T21:18:52.596Z,8.80
2022-12-25T21:21:23.267Z,8.80
2022-12-25T21:23:51.885Z,8.70
2022-12-25T21:26:22.464Z,8.70
2022-12-25T21:28:52.046Z,8.70
2022-12-25T21:31:21.099Z,8.70
2022-12-25T21:33:54.885Z,8.60
2022-12-25T21:36:27.897Z,8.70
2022-12-25T21:38:58.433Z,8.60
2022-12-25T21:41:28.063Z,8.60
2022-12-25T21:43:56.442Z,8.60
2022-12-25T21:46:25.204Z,8.50
2022-12-25T21:48:54.251Z,8.50
2022-12-25T21:51:43.807Z,8.50
2022-12-25T21:54:12.759Z,8.50
2022-12-25T21:56:44.861Z,8.40
2022-12-25T21:59:15.539Z,8.40
2022-12-25T22:01:44.738Z,8.40
2022-12-25T22:04:14.408Z,8.40
2022-12-25T22:07:07.150Z,8.40
2022-12-25T22:09:35.586Z,8.40
2022-12-25T22:12:21.700Z,8.30
2022-12-25T22:14:56.379Z,8.40
2022-12-25T22:17:44.644Z,8.30
2022-12-25T22:20:16.009Z,8.30
2022-12-25T22:22:45.921Z,8.30
2022-12-25T22:25:15.017Z,8.30
2022-12-25T22:27:45.074Z,8.30
2022-12-25T22:30:15.128Z,8.30
2022-12-25T22:32:43.611Z,8.30
2022-12-25T22:35:13.161Z,8.30
2022-12-25T22:37:42.349Z,8.40
2022-12-25T22:40:14.075Z,8.40
2022-12-25T22:42:42.609Z,8.50
2022-12-25T22:45:12.352Z,8.60
2022-12-25T22:47:40.949Z,8.60
2022-12-25T22:50:10.856Z,8.60
2022-12-25T22:52:39.528Z,8.70
2022-12-25T22:55:09.723Z,8.80
2022-12-25T22:57:39.443Z,8.90
2022-12-25T23:00:09.899Z,8.90
2022-12-25T23:02:38.455Z,9.00
2022-12-25T23:05:07.572Z,9.00
2022-12-25T23:07:35.902Z,9.10
2022-12-25T23:10:04.192Z,9.10
2022-12-25T23:12:50.065Z,9.20
2022-12-25T23:15:19.943Z,9.30
2022-12-25T23:18:05.533Z,9.30
2022-12-25T23:20:51.728Z,9.40
2022-12-25T23:23:37.203Z,9.40
2022-12-25T23:26:08.655Z,9.40
2022-12-25T23:28:54.378Z,9.40
2022-12-25T23:31:26.567Z,9.50
2022-12-25T23:33:54.941Z,9.50
2022-12-25T23:36:23.625Z,9.60
2022-12-25T23:38:51.929Z,9.60
2022-12-25T23:41:20.380Z,9.70
2022-12-25T23:43:48.662Z,9.70
2022-12-25T23:46:17.160Z,9.70
2022-12-25T23:48:46.948Z,9.70
2022-12-25T23:51:15.201Z,9.80
2022-12-25T23:53:43.455Z,9.80
2022-12-25T23:56:12.436Z,9.80
2022-12-25T23:58:42.792Z,9.80
